M\t Procida — IBJT — position and weather

sailwx.info

Track history (hours):
 
Tides and Currents Weather Stations Pressure Air Temp Water Temp Dewpoint Dewpoint Depression Visibility Wind Speed Wind Dir Waves Ship Positions

M\t Procida

Last reported at 2014-Nov-22 15:17 UTC. Time now 2014-Nov-24 16:25 UTC.
Position N 35°58' E 014°51'.

Length 149 m; draft 6.3 m.

Type: Ship (hazmat cat A). MMSI: 247258400.

Date/timePositionNaut miles runAvg speedWind from/ knotsBaromVisibWave heightAir tempDewpointWater temp
2014-Nov-22 15:17N 35°58' E 014°51'0 0.0
2014-Nov-22 14:32N 35°58' E 014°51'0 0.0
2014-Nov-22 11:29N 35°58' E 014°51'0 0.0
2014-Nov-22 10:26N 35°58' E 014°51'0 0.0
2014-Nov-22 09:23N 35°58' E 014°51'0 0.0
2014-Nov-21 23:29N 35°58' E 014°51'0 0.0
2014-Nov-21 22:08N 35°58' E 014°51'0 0.0
2014-Nov-21 21:20N 35°58' E 014°51'0 0.0
2014-Nov-21 20:23N 35°58' E 014°51'0 0.0
2014-Nov-21 19:32N 35°58' E 014°51'0 0.0
2014-Nov-21 16:20N 35°58' E 014°51'22 2.5
2014-Nov-21 07:31N 36°14' E 014°33'2812.8
2014-Nov-21 05:22N 36°25' E 014°01'1112.8
2014-Nov-21 04:32N 36°29' E 013°49'6912.5
2014-Nov-20 23:03N 36°55' E 012°30'7112.8
2014-Nov-20 17:29N 37°23' E 011°07'1213.1
2014-Nov-20 16:33N 37°17' E 010°54'3212.9
2014-Nov-20 14:07N 36°53' E 010°28'712.1
2014-Nov-20 13:32N 36°47' E 010°22'  
2014-Nov-17 15:27N 36°50' E 010°26'2411.7
2014-Nov-17 13:22N 37°10' E 010°44'13010.6
2014-Nov-17 01:05N 37°01' E 013°27'611.2
2014-Nov-17 00:33N 36°59' E 013°34'1111.0
2014-Nov-16 23:33N 36°54' E 013°46'1111.1
2014-Nov-16 22:33N 36°48' E 013°58'1111.3
2014-Nov-16 21:33N 36°44' E 014°11'1111.0
2014-Nov-16 20:33N 36°39' E 014°23'1110.5
2014-Nov-16 19:33N 36°36' E 014°36'1111.4
2014-Nov-16 18:33N 36°36' E 014°50'1111.2
2014-Nov-16 17:32N 36°36' E 015°04'  
2014-Nov-13 07:29N 37°26' E 015°40'59 3.7
2014-Nov-12 15:27N 36°41' E 014°53'  
Track history (hours):
 
Tides and Currents Weather Stations Pressure Air Temp Water Temp Dewpoint Dewpoint Depression Visibility Wind Speed Wind Dir Waves Ship Positions

M\t Procida

Last reported at 2014-Nov-22 15:17 UTC. Time now 2014-Nov-24 16:25 UTC.
Position N 35°58' E 014°51'.

Length 149 m; draft 6.3 m.

Type: Ship (hazmat cat A). MMSI: 247258400.

Date/timePositionNaut miles runAvg speedWind from/ knotsBaromVisibWave heightAir tempDewpointWater temp
2014-Nov-22 15:17N 35°58' E 014°51'0 0.0
2014-Nov-22 14:32N 35°58' E 014°51'0 0.0
2014-Nov-22 11:29N 35°58' E 014°51'0 0.0
2014-Nov-22 10:26N 35°58' E 014°51'0 0.0
2014-Nov-22 09:23N 35°58' E 014°51'0 0.0
2014-Nov-21 23:29N 35°58' E 014°51'0 0.0
2014-Nov-21 22:08N 35°58' E 014°51'0 0.0
2014-Nov-21 21:20N 35°58' E 014°51'0 0.0
2014-Nov-21 20:23N 35°58' E 014°51'0 0.0
2014-Nov-21 19:32N 35°58' E 014°51'0 0.0
2014-Nov-21 16:20N 35°58' E 014°51'22 2.5
2014-Nov-21 07:31N 36°14' E 014°33'2812.8
2014-Nov-21 05:22N 36°25' E 014°01'1112.8
2014-Nov-21 04:32N 36°29' E 013°49'6912.5
2014-Nov-20 23:03N 36°55' E 012°30'7112.8
2014-Nov-20 17:29N 37°23' E 011°07'1213.1
2014-Nov-20 16:33N 37°17' E 010°54'3212.9
2014-Nov-20 14:07N 36°53' E 010°28'712.1
2014-Nov-20 13:32N 36°47' E 010°22'  
2014-Nov-17 15:27N 36°50' E 010°26'2411.7
2014-Nov-17 13:22N 37°10' E 010°44'13010.6
2014-Nov-17 01:05N 37°01' E 013°27'611.2
2014-Nov-17 00:33N 36°59' E 013°34'1111.0
2014-Nov-16 23:33N 36°54' E 013°46'1111.1
2014-Nov-16 22:33N 36°48' E 013°58'1111.3
2014-Nov-16 21:33N 36°44' E 014°11'1111.0
2014-Nov-16 20:33N 36°39' E 014°23'1110.5
2014-Nov-16 19:33N 36°36' E 014°36'1111.4
2014-Nov-16 18:33N 36°36' E 014°50'1111.2
2014-Nov-16 17:32N 36°36' E 015°04'  
2014-Nov-13 07:29N 37°26' E 015°40'59 3.7
2014-Nov-12 15:27N 36°41' E 014°53'  

Dump ship's entire track history